Time;durP1;ratioP1;P1;durP2;ratioP2;P2;SDS_P1;SDS_P2;PMS_P1;PMS_P2;Temp;Humidity;BMP_temperature;BMP_pressure;BME280_temperature;BME280_humidity;BME280_pressure;Samples;Min_cycle;Max_cycle;Signal;HPM_P1;HPM_P2
2023/04/06 00:00:23;;;;;;;9.00;8.40;;;;;;;4.12;71.79;99293.69;5071349;28;20480;-71
2023/04/06 00:02:51;;;;;;;9.90;9.20;;;;;;;4.19;71.31;99299.13;5071140;28;20691;-71
2023/04/06 00:05:20;;;;;;;8.57;8.07;;;;;;;4.21;71.08;99297.19;5071907;28;20488;-71
2023/04/06 00:07:47;;;;;;;9.13;8.53;;;;;;;4.13;71.66;99297.94;5071589;28;20567;-72
2023/04/06 00:10:13;;;;;;;9.37;8.70;;;;;;;4.18;71.23;99287.81;5070995;28;20202;-71
2023/04/06 00:12:40;;;;;;;9.67;8.97;;;;;;;4.05;71.58;99287.41;5071695;28;20441;-72
2023/04/06 00:15:08;;;;;;;9.10;8.23;;;;;;;4.11;71.32;99286.78;5072095;28;20442;-73
2023/04/06 00:17:35;;;;;;;9.00;8.40;;;;;;;4.05;72.07;99286.63;5071550;28;20434;-72
2023/04/06 00:20:02;;;;;;;9.63;9.03;;;;;;;4.01;72.30;99280.84;5070843;28;20617;-72
2023/04/06 00:22:30;;;;;;;9.47;8.67;;;;;;;4.05;71.61;99284.00;5071721;28;20440;-72
2023/04/06 00:24:57;;;;;;;9.17;8.57;;;;;;;4.06;71.46;99280.38;5071384;28;20488;-72
2023/04/06 00:27:23;;;;;;;9.63;8.83;;;;;;;4.07;72.13;99280.22;5071647;28;20276;-71
2023/04/06 00:29:50;;;;;;;9.17;8.50;;;;;;;4.06;72.22;99273.31;5071419;28;20188;-71
2023/04/06 00:32:17;;;;;;;9.67;8.80;;;;;;;3.91;72.03;99267.03;5071690;28;20552;-72
2023/04/06 00:34:44;;;;;;;9.27;8.57;;;;;;;3.94;71.95;99273.75;5071493;28;20723;-73
2023/04/06 00:37:11;;;;;;;10.00;9.27;;;;;;;3.92;72.01;99271.28;5074936;28;20457;-73
2023/04/06 00:39:40;;;;;;;9.80;9.00;;;;;;;3.99;72.01;99274.09;5074191;28;20453;-73
2023/04/06 00:42:12;;;;;;;8.97;8.37;;;;;;;3.85;71.77;99272.91;5075772;28;20529;-73
2023/04/06 00:44:39;;;;;;;9.37;8.67;;;;;;;3.82;71.73;99269.78;5075675;28;20708;-72
2023/04/06 00:47:05;;;;;;;8.87;8.37;;;;;;;3.65;72.61;99263.66;5075616;28;20448;-72
2023/04/06 00:49:33;;;;;;;9.53;8.93;;;;;;;3.69;73.08;99259.72;5074409;28;20869;-72
2023/04/06 00:52:00;;;;;;;9.43;8.73;;;;;;;3.73;72.43;99261.06;5075673;28;20434;-71
2023/04/06 00:54:27;;;;;;;9.50;8.90;;;;;;;3.59;73.24;99247.72;5075244;28;20504;-72
2023/04/06 00:56:56;;;;;;;9.43;8.63;;;;;;;3.53;73.22;99259.66;5075678;28;20501;-72
2023/04/06 00:59:23;;;;;;;10.50;9.63;;;;;;;3.54;72.20;99253.44;5058408;28;20969;-72
2023/04/06 01:01:50;;;;;;;10.20;9.40;;;;;;;3.59;72.94;99253.78;5055936;28;20482;-72
2023/04/06 01:04:17;;;;;;;10.23;9.47;;;;;;;3.63;72.50;99264.81;5055321;28;20443;-73
2023/04/06 01:06:43;;;;;;;10.03;9.23;;;;;;;3.62;72.37;99253.47;5054972;28;20709;-72
2023/04/06 01:09:12;;;;;;;9.90;9.20;;;;;;;3.69;72.85;99249.22;5054799;28;20501;-72
2023/04/06 01:11:38;;;;;;;9.90;9.20;;;;;;;3.80;72.33;99245.50;5055368;28;20189;-72
2023/04/06 01:14:07;;;;;;;10.63;9.67;;;;;;;3.59;72.80;99227.50;5055194;28;20189;-72
2023/04/06 01:16:34;;;;;;;9.73;9.03;;;;;;;3.56;72.03;99243.56;5055143;28;20868;-72
2023/04/06 01:19:01;;;;;;;10.10;9.40;;;;;;;3.47;72.69;99239.28;5057555;28;20261;-72
2023/04/06 01:21:28;;;;;;;10.93;10.13;;;;;;;3.41;73.59;99234.66;5071874;28;20449;-72
2023/04/06 01:23:56;;;;;;;9.50;8.90;;;;;;;3.49;73.14;99232.06;5074663;28;20504;-71
2023/04/06 01:26:23;;;;;;;9.40;8.80;;;;;;;3.31;72.79;99223.44;5069453;28;20466;-72
2023/04/06 01:28:50;;;;;;;9.63;8.97;;;;;;;3.36;73.45;99221.19;5074985;28;20477;-73
2023/04/06 01:31:17;;;;;;;9.10;8.37;;;;;;;3.43;72.53;99224.81;5075058;28;20446;-72
2023/04/06 01:33:45;;;;;;;9.17;8.50;;;;;;;3.51;72.84;99235.34;5074757;28;20512;-72
2023/04/06 01:36:11;;;;;;;8.47;7.97;;;;;;;3.51;71.90;99224.84;5071195;28;20453;-72
2023/04/06 01:38:38;;;;;;;8.60;8.03;;;;;;;3.53;71.67;99222.91;5054286;28;20450;-72
2023/04/06 01:41:06;;;;;;;9.83;9.03;;;;;;;3.46;71.75;99216.63;5054755;28;20278;-72
2023/04/06 01:43:33;;;;;;;8.63;7.97;;;;;;;3.41;72.34;99223.34;5054236;28;20438;-71
2023/04/06 01:46:00;;;;;;;9.03;8.43;;;;;;;3.41;72.56;99208.41;5067798;28;20469;-72
2023/04/06 01:48:27;;;;;;;9.40;8.70;;;;;;;3.37;72.63;99211.50;5073394;28;21016;-72
2023/04/06 01:50:54;;;;;;;10.20;9.43;;;;;;;3.36;72.60;99208.06;5074240;28;20445;-72
2023/04/06 01:53:21;;;;;;;10.50;9.70;;;;;;;3.40;72.15;99211.19;5074026;28;20859;-72
2023/04/06 01:55:47;;;;;;;8.77;8.27;;;;;;;3.35;72.70;99211.66;5063489;28;20451;-72
2023/04/06 01:58:15;;;;;;;9.60;9.00;;;;;;;3.38;72.52;99210.50;5054196;28;20447;-71
2023/04/06 02:00:42;;;;;;;9.97;9.20;;;;;;;3.29;73.54;99204.44;5054449;28;20461;-71
2023/04/06 02:03:09;;;;;;;8.70;8.20;;;;;;;3.33;73.90;99200.50;5054205;28;20442;-72
2023/04/06 02:05:37;;;;;;;10.37;9.57;;;;;;;3.36;73.43;99194.13;5061656;28;20482;-71
2023/04/06 02:08:05;;;;;;;11.80;10.70;;;;;;;3.15;73.73;99196.31;5073597;28;20442;-72
2023/04/06 02:10:31;;;;;;;10.33;9.53;;;;;;;3.22;74.24;99202.56;5073916;28;20441;-71
2023/04/06 02:12:58;;;;;;;10.50;9.53;;;;;;;3.12;74.88;99194.84;5073735;28;20439;-71
2023/04/06 02:15:26;;;;;;;10.93;10.03;;;;;;;3.02;75.03;99196.72;5072398;28;20988;-71
2023/04/06 02:17:54;;;;;;;11.57;10.57;;;;;;;3.01;74.81;99204.75;5073992;28;20456;-70
2023/04/06 02:20:21;;;;;;;11.30;10.40;;;;;;;2.99;75.13;99197.03;5073560;28;20983;-71
2023/04/06 02:22:47;;;;;;;10.60;9.77;;;;;;;3.02;76.16;99190.69;5073629;28;21013;-72
2023/04/06 02:25:14;;;;;;;11.13;10.23;;;;;;;3.02;75.25;99201.19;5071288;28;20964;-72
2023/04/06 02:27:41;;;;;;;11.00;10.17;;;;;;;2.94;76.20;99199.31;5073938;28;20461;-72
2023/04/06 02:30:09;;;;;;;11.97;10.87;;;;;;;2.99;76.19;99199.66;5073748;28;20434;-72
2023/04/06 02:32:37;;;;;;;11.63;10.43;;;;;;;3.04;75.63;99205.28;5073354;28;20959;-72
2023/04/06 02:35:04;;;;;;;10.70;9.77;;;;;;;3.00;75.45;99209.19;5072783;28;20441;-71
2023/04/06 02:37:31;;;;;;;13.07;11.73;;;;;;;2.84;76.17;99214.34;5073395;28;20441;-71
2023/04/06 02:39:57;;;;;;;12.43;11.33;;;;;;;2.89;77.12;99216.47;5073382;28;20442;-72
2023/04/06 02:42:24;;;;;;;11.20;10.20;;;;;;;2.86;76.29;99209.75;5073623;28;20492;-72
2023/04/06 02:44:51;;;;;;;12.17;11.30;;;;;;;2.84;76.59;99203.00;5057875;28;20447;-73
2023/04/06 02:47:18;;;;;;;11.27;10.43;;;;;;;2.79;76.70;99216.59;5053101;28;20478;-72
2023/04/06 02:49:46;;;;;;;10.57;9.77;;;;;;;2.75;76.27;99203.94;5053308;28;20439;-72
2023/04/06 02:52:12;;;;;;;11.83;10.73;;;;;;;2.76;76.66;99216.06;5053466;28;20442;-72
2023/04/06 02:54:39;;;;;;;11.07;10.10;;;;;;;2.93;75.53;99216.03;5065475;28;20450;-72
2023/04/06 02:57:06;;;;;;;10.73;9.80;;;;;;;2.86;75.60;99212.38;5072876;28;20880;-71
2023/04/06 02:59:33;;;;;;;11.70;10.73;;;;;;;2.82;75.82;99210.22;5071976;28;20524;-71
2023/04/06 03:02:00;;;;;;;10.33;9.43;;;;;;;2.89;75.48;99203.38;5073110;28;20442;-72
2023/04/06 03:04:26;;;;;;;10.97;10.07;;;;;;;2.94;75.81;99220.28;5060984;28;20971;-70
2023/04/06 03:06:55;;;;;;;12.07;10.27;;;;;;;2.84;75.66;99213.50;5052753;28;20482;-70
2023/04/06 03:09:22;;;;;;;10.50;9.80;;;;;;;2.86;76.33;99214.19;5052641;28;20521;-70
2023/04/06 03:11:49;;;;;;;11.40;10.33;;;;;;;2.77;76.65;99200.19;5052943;28;20443;-70
2023/04/06 03:14:17;;;;;;;10.67;9.77;;;;;;;2.83;76.46;99217.94;5061440;28;20521;-70
2023/04/06 03:16:44;;;;;;;10.50;9.50;;;;;;;2.91;76.07;99210.13;5072624;28;20989;-70
2023/04/06 03:19:11;;;;;;;10.97;9.97;;;;;;;2.89;75.58;99211.22;5072661;28;20434;-70
2023/04/06 03:21:37;;;;;;;10.30;9.40;;;;;;;2.76;75.79;99195.94;5072311;28;20446;-71
2023/04/06 03:24:06;;;;;;;11.20;10.20;;;;;;;2.83;75.99;99217.94;5064487;28;20458;-70
2023/04/06 03:26:33;;;;;;;12.40;11.40;;;;;;;2.88;76.63;99210.44;5055329;28;20489;-70
2023/04/06 03:29:00;;;;;;;11.53;10.53;;;;;;;2.87;76.58;99216.66;5052696;28;20474;-70
2023/04/06 03:31:27;;;;;;;11.93;10.93;;;;;;;2.91;76.17;99220.63;5052592;28;20462;-71
2023/04/06 03:33:53;;;;;;;11.70;10.70;;;;;;;2.85;76.07;99195.00;5064835;28;20970;-71
2023/04/06 03:36:20;;;;;;;12.53;11.37;;;;;;;2.96;76.21;99222.75;5072668;28;20507;-72
2023/04/06 03:38:47;;;;;;;12.10;11.10;;;;;;;2.95;75.47;99214.09;5072137;28;20962;-72
2023/04/06 03:41:15;;;;;;;11.40;10.40;;;;;;;2.95;76.36;99216.72;5070752;28;20939;-72
2023/04/06 03:43:42;;;;;;;11.40;10.40;;;;;;;2.93;76.32;99228.31;5052132;28;20529;-72
2023/04/06 03:46:09;;;;;;;11.27;10.37;;;;;;;2.99;76.01;99218.03;5052107;28;20839;-71
2023/04/06 03:48:36;;;;;;;13.10;10.67;;;;;;;2.79;77.18;99215.78;5052289;28;20447;-72
2023/04/06 03:51:02;;;;;;;11.57;10.67;;;;;;;2.81;76.48;99214.63;5052180;28;20443;-72
2023/04/06 03:53:29;;;;;;;11.60;10.37;;;;;;;2.96;76.36;99212.28;5070292;28;20453;-69
2023/04/06 03:55:56;;;;;;;11.87;10.97;;;;;;;2.90;76.89;99212.91;5072144;28;20433;-70
2023/04/06 03:58:24;;;;;;;12.77;11.67;;;;;;;2.93;76.59;99208.16;5071757;28;20442;-70
2023/04/06 04:00:51;;;;;;;12.93;11.83;;;;;;;3.01;76.56;99221.31;5071993;28;20440;-71
2023/04/06 04:03:18;;;;;;;12.87;11.57;;;;;;;3.02;75.89;99217.72;5054281;28;20453;-70
2023/04/06 04:05:45;;;;;;;11.13;10.10;;;;;;;3.04;76.77;99215.78;5051726;28;20478;-71
2023/04/06 04:08:11;;;;;;;11.90;10.77;;;;;;;3.07;76.19;99212.81;5051756;28;20966;-70
2023/04/06 04:10:38;;;;;;;12.23;11.33;;;;;;;3.13;75.62;99214.84;5051271;28;21059;-69
2023/04/06 04:13:05;;;;;;;12.37;11.20;;;;;;;3.27;75.56;99211.63;5065780;28;20445;-70
2023/04/06 04:15:33;;;;;;;11.67;10.67;;;;;;;3.21;75.06;99207.00;5071822;28;20503;-70
2023/04/06 04:18:00;;;;;;;13.23;10.77;;;;;;;3.27;75.49;99202.94;5071559;28;20826;-70
2023/04/06 04:20:28;;;;;;;12.03;11.03;;;;;;;3.43;75.42;99208.25;5071541;28;20445;-70
2023/04/06 04:22:54;;;;;;;12.37;11.33;;;;;;;3.58;74.01;99215.38;5060126;28;20443;-69
2023/04/06 04:25:21;;;;;;;11.50;10.47;;;;;;;3.87;73.47;99212.31;5056420;28;20442;-69
2023/04/06 04:27:48;;;;;;;11.30;10.27;;;;;;;4.30;71.65;99222.59;5071464;28;20236;-68
2023/04/06 04:30:15;;;;;;;11.60;10.47;;;;;;;4.72;74.68;99216.19;5071855;28;20434;-72
2023/04/06 04:32:43;;;;;;;13.10;9.23;;;;;;;5.31;73.44;99226.25;5068930;28;20918;-76
2023/04/06 04:35:11;;;;;;;11.23;10.33;;;;;;;5.50;69.46;99220.63;5071862;28;20191;-72
2023/04/06 04:37:37;;;;;;;9.50;8.80;;;;;;;5.09;68.31;99221.72;5071335;28;20652;-71
2023/04/06 04:40:05;;;;;;;10.30;9.57;;;;;;;4.64;69.50;99221.47;5071507;28;20241;-74
2023/04/06 04:42:32;;;;;;;10.53;9.53;;;;;;;4.40;70.78;99210.94;5062013;28;20627;-72
2023/04/06 04:44:59;;;;;;;11.53;10.50;;;;;;;4.31;70.83;99206.66;5063065;28;20286;-72
2023/04/06 04:47:26;;;;;;;10.30;9.60;;;;;;;4.24;70.71;99213.56;5070553;28;20611;-70
2023/04/06 04:49:54;;;;;;;10.53;9.40;;;;;;;4.20;70.78;99217.50;5070581;28;20199;-71
2023/04/06 04:52:21;;;;;;;11.30;9.40;;;;;;;4.16;71.35;99210.91;5068736;28;20257;-63
2023/04/06 04:54:47;;;;;;;9.87;9.13;;;;;;;4.24;70.97;99213.56;5070739;28;20627;-63
2023/04/06 04:57:14;;;;;;;11.17;10.27;;;;;;;4.17;71.80;99217.81;5070575;28;20221;-63
2023/04/06 04:59:41;;;;;;;20.87;13.47;;;;;;;4.21;71.89;99218.31;5071207;28;20192;-63
2023/04/06 05:02:08;;;;;;;10.23;9.33;;;;;;;4.05;71.70;99210.41;5054709;28;20254;-64
2023/04/06 05:04:35;;;;;;;10.47;9.47;;;;;;;4.11;71.59;99213.22;5051115;28;20603;-63
2023/04/06 05:07:07;;;;;;;10.07;8.97;;;;;;;4.26;70.85;99213.41;5051113;28;20236;-63
2023/04/06 05:09:34;;;;;;;9.57;8.77;;;;;;;4.26;70.89;99214.22;5051145;28;20200;-63
2023/04/06 05:12:01;;;;;;;13.33;9.77;;;;;;;4.40;70.60;99207.47;5064462;28;20449;-64
2023/04/06 05:14:28;;;;;;;11.80;9.07;;;;;;;4.49;70.63;99209.13;5070826;28;20706;-64
2023/04/06 05:16:55;;;;;;;10.17;9.27;;;;;;;4.58;70.29;99211.59;5070665;28;20861;-65
2023/04/06 05:19:22;;;;;;;12.97;8.87;;;;;;;4.59;69.66;99196.63;5070269;28;20648;-64
2023/04/06 05:21:49;;;;;;;16.77;10.37;;;;;;;4.84;69.76;99212.25;5058269;28;20204;-64
2023/04/06 05:24:17;;;;;;;10.27;9.00;;;;;;;4.98;68.80;99203.66;5054061;28;20688;-65
2023/04/06 05:26:44;;;;;;;10.20;9.30;;;;;;;5.15;68.09;99210.50;5070533;28;20223;-64
2023/04/06 05:29:11;;;;;;;9.47;8.77;;;;;;;5.04;67.14;99202.16;5067036;28;20265;-64
2023/04/06 05:31:38;;;;;;;19.93;9.50;;;;;;;5.12;67.98;99204.78;5071810;28;20282;-62
2023/04/06 05:34:05;;;;;;;9.53;8.87;;;;;;;5.10;67.83;99191.78;5086022;28;20207;-63
2023/04/06 05:36:32;;;;;;;10.43;9.10;;;;;;;5.27;67.69;99209.16;5064910;28;20197;-63
2023/04/06 05:38:59;;;;;;;9.53;8.73;;;;;;;5.49;66.75;99207.63;5093369;28;20252;-62
2023/04/06 05:41:27;;;;;;;48.77;11.30;;;;;;;5.69;66.96;99209.66;5084168;28;20184;-63
2023/04/06 05:43:54;;;;;;;10.97;9.17;;;;;;;5.71;66.59;99205.03;5073100;28;20593;-72
2023/04/06 05:46:21;;;;;;;8.90;8.23;;;;;;;5.86;65.82;99199.88;5084663;28;20638;-70
2023/04/06 05:48:48;;;;;;;9.53;8.60;;;;;;;6.59;63.02;99202.84;5093205;28;20660;-70
2023/04/06 05:51:14;;;;;;;9.23;8.37;;;;;;;6.90;61.94;99214.13;5081022;28;20237;-70
2023/04/06 05:53:41;;;;;;;60.73;9.73;;;;;;;7.09;60.82;99226.78;5073469;28;20193;-73
2023/04/06 05:56:08;;;;;;;8.47;7.70;;;;;;;7.59;58.81;99218.97;5073458;28;20195;-73
2023/04/06 05:58:36;;;;;;;24.00;8.40;;;;;;;8.20;57.16;99218.47;5074001;28;20194;-73
2023/04/06 06:01:04;;;;;;;9.03;7.77;;;;;;;8.59;54.61;99218.91;5074162;28;20202;-74
2023/04/06 06:03:32;;;;;;;7.30;6.70;;;;;;;8.84;54.15;99206.88;5085924;28;20197;-73
2023/04/06 06:06:02;;;;;;;8.07;7.37;;;;;;;8.64;53.80;99213.84;5079964;28;20814;-71
2023/04/06 06:08:28;;;;;;;7.43;6.83;;;;;;;8.79;53.58;99214.59;5073660;28;20274;-73
2023/04/06 06:10:55;;;;;;;7.57;7.07;;;;;;;8.96;54.39;99210.66;5073670;28;20270;-73
2023/04/06 06:13:22;;;;;;;16.87;8.13;;;;;;;9.40;55.39;99205.84;5073417;28;20202;-70
2023/04/06 06:15:51;;;;;;;9.43;8.00;;;;;;;9.98;52.92;99218.56;5073154;28;20250;-69
2023/04/06 06:18:18;;;;;;;8.17;7.57;;;;;;;10.06;51.03;99223.72;5073482;28;20565;-68
2023/04/06 06:20:45;;;;;;;9.77;7.17;;;;;;;10.19;51.78;99213.16;5073475;28;20577;-71
2023/04/06 06:23:12;;;;;;;8.10;7.30;;;;;;;10.32;49.55;99213.19;5072833;28;20203;-69
2023/04/06 06:25:39;;;;;;;8.63;7.77;;;;;;;10.23;50.46;99201.13;5073323;28;20195;-73
2023/04/06 06:28:05;;;;;;;7.87;7.00;;;;;;;10.13;51.83;99200.69;5072164;28;20246;-74
2023/04/06 06:30:32;;;;;;;7.00;6.60;;;;;;;10.18;49.50;99209.66;5072645;28;20192;-74
2023/04/06 06:33:00;;;;;;;8.40;7.80;;;;;;;10.24;48.81;99210.72;5072307;28;20200;-75
2023/04/06 06:35:27;;;;;;;6.23;5.73;;;;;;;10.05;48.44;99206.19;5072770;28;20200;-73
2023/04/06 06:37:54;;;;;;;13.73;7.10;;;;;;;10.08;48.95;99208.41;5074590;28;20196;-76
2023/04/06 06:40:23;;;;;;;7.40;6.83;;;;;;;10.08;48.96;99205.75;5072755;28;20218;-77
2023/04/06 06:42:50;;;;;;;6.80;6.17;;;;;;;10.45;47.70;99211.38;5072835;28;20196;-76
2023/04/06 06:45:17;;;;;;;6.70;6.20;;;;;;;10.25;48.32;99205.19;5073146;28;20192;-77
2023/04/06 06:47:44;;;;;;;58.97;8.73;;;;;;;10.13;46.86;99195.38;5072622;28;20219;-73
2023/04/06 06:50:12;;;;;;;7.27;6.77;;;;;;;9.77;48.64;99205.44;5073047;28;20207;-74
2023/04/06 06:52:41;;;;;;;6.73;6.33;;;;;;;9.85;48.92;99197.31;5063666;28;20196;-75
2023/04/06 06:55:09;;;;;;;7.07;6.57;;;;;;;9.87;50.23;99174.03;5052306;28;20689;-74
2023/04/06 06:57:36;;;;;;;7.27;6.57;;;;;;;10.56;48.39;99191.38;5052660;28;20653;-72
2023/04/06 07:00:02;;;;;;;18.03;7.43;;;;;;;10.65;48.58;99200.75;5052561;28;20192;-72
2023/04/06 07:02:29;;;;;;;10.57;6.93;;;;;;;10.53;47.90;99203.22;5062340;28;20188;-73
2023/04/06 07:04:56;;;;;;;7.47;6.83;;;;;;;10.81;48.41;99189.75;5069547;28;20187;-74
2023/04/06 07:07:24;;;;;;;7.50;6.90;;;;;;;10.80;48.53;99201.38;5072456;28;20226;-77
2023/04/06 07:09:51;;;;;;;7.23;6.70;;;;;;;10.59;48.65;99191.75;5070749;28;20596;-76
2023/04/06 07:12:18;;;;;;;6.13;5.73;;;;;;;10.86;48.12;99197.91;5071198;28;20191;-72
2023/04/06 07:14:44;;;;;;;7.47;6.93;;;;;;;11.34;48.34;99198.47;5068646;28;20279;-72
2023/04/06 07:17:11;;;;;;;7.07;6.53;;;;;;;11.33;45.98;99195.00;5070460;28;20245;-72
2023/04/06 07:19:38;;;;;;;7.93;6.93;;;;;;;11.19;46.43;99198.69;5071744;28;20233;-72
2023/04/06 07:22:05;;;;;;;6.43;6.03;;;;;;;11.06;46.72;99193.41;5071746;28;20193;-72
2023/04/06 07:24:33;;;;;;;6.80;6.20;;;;;;;11.22;46.69;99187.66;5070894;28;20665;-73
2023/04/06 07:27:00;;;;;;;6.77;6.27;;;;;;;11.17;45.76;99200.75;5071390;28;20220;-71
2023/04/06 07:29:27;;;;;;;14.17;6.80;;;;;;;11.33;45.65;99202.97;5071570;28;20201;-73
2023/04/06 07:31:54;;;;;;;17.27;6.17;;;;;;;11.71;43.79;99206.56;5071538;28;20196;-71
2023/04/06 07:34:21;;;;;;;20.37;5.70;;;;;;;11.75;43.87;99191.81;5069920;28;20604;-77
2023/04/06 07:36:48;;;;;;;5.83;5.33;;;;;;;11.58;44.34;99197.78;5071052;28;20184;-75
2023/04/06 07:39:15;;;;;;;5.80;5.30;;;;;;;11.43;44.41;99208.66;5069940;28;20339;-76
2023/04/06 07:41:43;;;;;;;7.77;6.20;;;;;;;11.41;45.63;99207.25;5071015;28;20204;-75
2023/04/06 07:44:10;;;;;;;6.23;5.70;;;;;;;11.86;44.34;99207.16;5071538;28;20200;-75
2023/04/06 07:46:36;;;;;;;6.40;6.00;;;;;;;11.84;44.24;99214.50;5066018;28;20566;-77
2023/04/06 07:49:04;;;;;;;8.13;6.20;;;;;;;11.93;43.96;99197.31;5071877;28;20214;-72
2023/04/06 07:51:30;;;;;;;42.43;8.47;;;;;;;11.57;44.69;99202.31;5066557;28;20197;-73
2023/04/06 07:53:57;;;;;;;7.03;5.87;;;;;;;12.09;44.86;99196.78;5070285;28;20673;-74
2023/04/06 07:56:24;;;;;;;7.47;6.43;;;;;;;12.51;47.37;99198.81;5070863;28;20201;-72
2023/04/06 07:58:55;;;;;;;10.30;6.03;;;;;;;12.36;43.28;99214.25;5069503;28;20201;-72
2023/04/06 08:01:22;;;;;;;6.27;5.87;;;;;;;12.55;47.67;99188.53;5067811;28;20660;-74
2023/04/06 08:03:49;;;;;;;5.50;5.20;;;;;;;12.69;43.62;99190.88;5070289;28;20196;-77
2023/04/06 08:06:16;;;;;;;9.97;6.57;;;;;;;12.69;43.66;99193.53;5062616;28;20210;-74
2023/04/06 08:08:42;;;;;;;6.57;5.70;;;;;;;12.42;44.34;99192.06;5058705;28;20671;-76
2023/04/06 08:11:09;;;;;;;14.70;6.53;;;;;;;12.35;43.87;99195.81;5069249;28;20195;-79
2023/04/06 08:13:36;;;;;;;14.70;6.80;;;;;;;12.86;43.66;99189.28;5069617;28;20224;-73
2023/04/06 08:16:05;;;;;;;7.07;6.40;;;;;;;13.01;42.09;99194.31;5068741;28;20690;-69
2023/04/06 08:18:32;;;;;;;6.33;5.83;;;;;;;12.99;43.92;99193.75;5069500;28;20316;-71
2023/04/06 08:20:59;;;;;;;77.87;9.97;;;;;;;12.87;42.46;99196.25;5071007;28;20255;-71
2023/04/06 08:23:26;;;;;;;8.83;7.20;;;;;;;12.95;42.71;99190.66;5071032;28;20214;-72
2023/04/06 08:25:54;;;;;;;62.57;11.00;;;;;;;12.72;43.74;99152.31;5070785;28;20734;-73
2023/04/06 08:28:20;;;;;;;7.33;6.50;;;;;;;12.98;44.04;99168.91;5069741;28;20299;-73
2023/04/06 08:30:47;;;;;;;6.57;6.07;;;;;;;12.52;43.79;99154.31;5071062;28;20198;-72
2023/04/06 08:33:15;;;;;;;8.87;6.83;;;;;;;13.03;48.91;99147.75;5059738;28;20201;-71
2023/04/06 08:35:42;;;;;;;11.17;6.67;;;;;;;13.04;42.95;99165.41;5061039;28;20205;-71
2023/04/06 08:38:09;;;;;;;9.17;6.57;;;;;;;13.31;41.97;99160.63;5063341;28;20205;-72
2023/04/06 08:40:37;;;;;;;7.57;6.10;;;;;;;13.61;41.52;99157.00;5050038;28;20199;-72
2023/04/06 08:43:08;;;;;;;6.63;5.57;;;;;;;13.31;41.63;99150.75;5071445;28;20691;-71
2023/04/06 08:45:35;;;;;;;22.53;7.07;;;;;;;13.32;41.33;99152.38;5070939;28;20699;-70
2023/04/06 08:48:04;;;;;;;6.37;5.97;;;;;;;13.45;42.79;99140.75;5069007;28;20256;-69
2023/04/06 08:50:35;;;;;;;6.33;5.83;;;;;;;13.26;42.37;99147.94;5070568;28;20196;-70
2023/04/06 08:53:02;;;;;;;10.57;7.53;;;;;;;13.41;45.16;99134.22;5069753;28;20230;-70
2023/04/06 08:55:29;;;;;;;22.20;8.23;;;;;;;14.57;46.09;99131.81;5070476;28;20300;-69
2023/04/06 08:57:56;;;;;;;14.33;6.43;;;;;;;14.75;44.86;99113.00;5070750;28;20203;-70
2023/04/06 09:00:24;;;;;;;5.93;5.53;;;;;;;14.95;39.95;99126.84;5074464;28;20676;-71
2023/04/06 09:02:55;;;;;;;8.77;6.47;;;;;;;14.70;39.59;99120.91;5074701;28;20253;-71
2023/04/06 09:05:24;;;;;;;5.80;5.50;;;;;;;13.85;39.62;99131.22;5074634;28;20184;-71
2023/04/06 09:07:53;;;;;;;9.20;6.53;;;;;;;14.54;45.32;99124.25;5072904;28;20269;-71
2023/04/06 09:10:20;;;;;;;6.90;6.00;;;;;;;14.44;40.04;99112.50;5068835;28;20547;-70
2023/04/06 09:12:47;;;;;;;8.17;6.30;;;;;;;14.31;45.41;99094.84;5064698;28;20592;-70
2023/04/06 09:15:23;;;;;;;6.87;6.07;;;;;;;14.18;40.57;99111.00;5072898;28;20196;-71
2023/04/06 09:17:51;;;;;;;5.33;5.03;;;;;;;14.21;39.41;99107.13;5056569;28;20211;-73
2023/04/06 09:20:25;;;;;;;7.50;5.60;;;;;;;14.70;43.18;99102.19;5054322;28;20254;-69
2023/04/06 09:22:53;;;;;;;6.87;6.20;;;;;;;15.03;39.39;99110.44;5054075;28;20203;-69
2023/04/06 09:25:22;;;;;;;6.53;5.23;;;;;;;14.83;41.10;99087.78;5057801;28;20665;-70
2023/04/06 09:27:58;;;;;;;6.30;5.80;;;;;;;14.72;40.02;99108.13;5071586;28;20234;-69
2023/04/06 09:30:26;;;;;;;6.03;5.63;;;;;;;15.18;43.02;99081.34;5072611;28;20246;-70
2023/04/06 09:32:55;;;;;;;5.87;5.13;;;;;;;14.36;39.19;99060.22;5073789;28;20636;-70
2023/04/06 09:35:23;;;;;;;5.07;4.73;;;;;;;14.21;39.32;99097.22;5073836;28;20195;-69
2023/04/06 09:37:51;;;;;;;4.77;4.27;;;;;;;14.03;40.04;99091.94;5068866;28;20657;-70
2023/04/06 09:40:21;;;;;;;12.07;4.87;;;;;;;14.45;40.46;99092.75;5072515;28;20207;-70
2023/04/06 09:42:50;;;;;;;4.97;4.27;;;;;;;14.72;38.57;99086.75;5073420;28;20192;-69
2023/04/06 09:45:17;;;;;;;5.23;4.93;;;;;;;14.44;39.67;99086.59;5073016;28;20184;-72
2023/04/06 09:47:46;;;;;;;16.07;4.93;;;;;;;14.64;43.01;99073.72;5070951;28;20704;-71
2023/04/06 09:50:14;;;;;;;9.97;4.80;;;;;;;15.28;40.15;99070.84;5071022;28;20192;-73
2023/04/06 09:52:47;;;;;;;20.47;4.37;;;;;;;15.30;36.47;99074.13;5072639;28;20199;-72
2023/04/06 09:55:23;;;;;;;18.13;4.30;;;;;;;15.57;38.21;99072.53;5072715;28;20195;-71
2023/04/06 09:57:56;;;;;;;4.07;3.67;;;;;;;16.12;34.80;99085.38;5073084;28;20188;-69
2023/04/06 10:00:24;;;;;;;6.00;3.80;;;;;;;15.59;33.92;99085.69;5059835;28;20268;-71
2023/04/06 10:02:56;;;;;;;4.47;3.80;;;;;;;14.98;35.84;99074.72;5053141;28;20189;-73
2023/04/06 10:05:33;;;;;;;4.17;3.90;;;;;;;14.35;37.15;99079.16;5063766;28;20203;-71
2023/04/06 10:08:05;;;;;;;7.03;4.20;;;;;;;14.55;37.55;99061.72;5068027;28;20207;-70
2023/04/06 10:10:34;;;;;;;14.77;4.40;;;;;;;14.60;36.33;99077.06;5061986;28;20724;-71
2023/04/06 10:13:01;;;;;;;4.07;3.70;;;;;;;14.68;38.18;99077.56;5063981;28;20199;-72
2023/04/06 10:15:29;;;;;;;4.93;3.83;;;;;;;14.80;35.91;99078.38;5070967;28;20192;-73
2023/04/06 10:17:56;;;;;;;9.87;3.90;;;;;;;15.07;40.59;99063.44;5071480;28;20620;-71
2023/04/06 10:20:30;;;;;;;5.50;3.37;;;;;;;15.82;37.80;99062.31;5072989;28;20196;-69
2023/04/06 10:23:02;;;;;;;22.40;5.30;;;;;;;16.10;37.30;99058.00;5072725;28;20188;-67
2023/04/06 10:25:29;;;;;;;4.20;3.90;;;;;;;16.05;34.90;99061.38;5072607;28;20242;-70
2023/04/06 10:28:07;;;;;;;4.17;3.80;;;;;;;16.20;36.38;99068.91;5071400;28;20234;-69
2023/04/06 10:30:34;;;;;;;4.60;4.20;;;;;;;15.97;33.63;99042.22;5072247;28;20216;-71
2023/04/06 10:33:02;;;;;;;12.80;3.73;;;;;;;14.94;34.99;99031.59;5056645;28;20548;-71
2023/04/06 10:35:39;;;;;;;4.20;4.00;;;;;;;14.77;36.04;99020.00;5051921;28;20192;-71
2023/04/06 10:38:06;;;;;;;4.17;3.87;;;;;;;14.89;36.97;99020.00;5053748;28;20202;-71
2023/04/06 10:40:37;;;;;;;10.00;4.17;;;;;;;15.24;36.06;99013.50;5052870;28;20204;-73
2023/04/06 10:43:13;;;;;;;6.07;4.10;;;;;;;15.39;36.91;99019.19;5064734;28;20634;-73
2023/04/06 10:45:42;;;;;;;7.50;4.30;;;;;;;15.94;36.70;99016.75;5072083;28;20195;-75
2023/04/06 10:48:16;;;;;;;6.13;4.00;;;;;;;16.47;38.75;99016.28;5072015;28;20312;-71
2023/04/06 10:50:45;;;;;;;4.40;4.10;;;;;;;16.86;34.53;99009.88;5070152;28;20700;-73
2023/04/06 10:53:12;;;;;;;14.03;4.97;;;;;;;17.01;33.51;99023.50;5063324;28;20280;-72
2023/04/06 10:55:41;;;;;;;3.93;3.73;;;;;;;16.80;32.49;99018.91;5051740;28;20204;-73
2023/04/06 10:58:08;;;;;;;16.40;4.27;;;;;;;16.39;32.96;99008.63;5051803;28;20296;-73
2023/04/06 11:00:36;;;;;;;4.17;3.80;;;;;;;16.58;37.78;99001.97;5052023;28;20188;-73
2023/04/06 11:03:03;;;;;;;4.17;3.70;;;;;;;17.19;36.80;98993.69;5058584;28;20196;-72
2023/04/06 11:05:30;;;;;;;5.97;4.00;;;;;;;17.34;32.21;98999.19;5071671;28;20208;-73
2023/04/06 11:07:57;;;;;;;3.80;3.40;;;;;;;16.30;32.09;98991.31;5072308;28;20225;-72
2023/04/06 11:10:24;;;;;;;4.47;3.73;;;;;;;15.95;33.14;98991.56;5072082;28;20681;-74
2023/04/06 11:12:55;;;;;;;3.50;3.30;;;;;;;16.19;34.28;98976.13;5062869;28;20288;-74
2023/04/06 11:15:22;;;;;;;4.00;3.80;;;;;;;16.04;32.81;98984.75;5072159;28;20211;-69
2023/04/06 11:17:50;;;;;;;4.60;4.30;;;;;;;15.85;33.36;98980.69;5072099;28;20661;-69
2023/04/06 11:20:19;;;;;;;6.20;4.43;;;;;;;16.01;34.12;98979.06;5066970;28;20257;-72
2023/04/06 11:22:50;;;;;;;4.63;4.33;;;;;;;15.88;34.13;98975.66;5071443;28;20196;-72
2023/04/06 11:25:17;;;;;;;4.20;3.90;;;;;;;15.09;34.29;98973.09;5071647;28;20271;-71
2023/04/06 11:27:45;;;;;;;20.00;4.97;;;;;;;15.31;34.37;98963.34;5071927;28;20270;-71
2023/04/06 11:30:13;;;;;;;8.77;4.20;;;;;;;15.41;35.05;98976.13;5070583;28;20194;-72
2023/04/06 11:32:42;;;;;;;4.40;4.00;;;;;;;15.73;34.17;98972.72;5071722;28;20577;-72